sensor_id;sensor_type;location;lat;lon;timestamp;pressure;altitude;pressure_sealevel;temperature;humidity
4415;BME280;2220;42.670;23.398;2023-04-22T00:00:24;92793.53;;;9.17;100.00
4415;BME280;2220;42.670;23.398;2023-04-22T00:02:50;92779.66;;;9.21;100.00
4415;BME280;2220;42.670;23.398;2023-04-22T00:05:15;92787.38;;;9.13;100.00
4415;BME280;2220;42.670;23.398;2023-04-22T00:07:42;92777.44;;;8.92;100.00
4415;BME280;2220;42.670;23.398;2023-04-22T00:10:09;92770.16;;;8.81;100.00
4415;BME280;2220;42.670;23.398;2023-04-22T00:12:35;92754.72;;;8.76;100.00
4415;BME280;2220;42.670;23.398;2023-04-22T00:15:01;92740.00;;;8.71;100.00
4415;BME280;2220;42.670;23.398;2023-04-22T00:17:26;92743.47;;;8.66;100.00
4415;BME280;2220;42.670;23.398;2023-04-22T00:19:52;92741.53;;;8.72;100.00
4415;BME280;2220;42.670;23.398;2023-04-22T00:22:19;92737.03;;;8.64;100.00
4415;BME280;2220;42.670;23.398;2023-04-22T00:24:44;92737.03;;;8.64;100.00
4415;BME280;2220;42.670;23.398;2023-04-22T00:27:10;92738.84;;;8.63;100.00
4415;BME280;2220;42.670;23.398;2023-04-22T00:29:35;92732.31;;;8.66;100.00
4415;BME280;2220;42.670;23.398;2023-04-22T00:32:01;92736.63;;;8.71;100.00
4415;BME280;2220;42.670;23.398;2023-04-22T00:34:26;92741.72;;;8.76;100.00
4415;BME280;2220;42.670;23.398;2023-04-22T00:36:52;92750.56;;;8.75;100.00
4415;BME280;2220;42.670;23.398;2023-04-22T00:39:17;92750.97;;;8.68;100.00
4415;BME280;2220;42.670;23.398;2023-04-22T00:41:43;92777.22;;;8.66;100.00
4415;BME280;2220;42.670;23.398;2023-04-22T00:44:09;92763.88;;;8.59;100.00
4415;BME280;2220;42.670;23.398;2023-04-22T00:46:39;92787.97;;;8.60;100.00
4415;BME280;2220;42.670;23.398;2023-04-22T00:49:05;92775.19;;;8.50;100.00
4415;BME280;2220;42.670;23.398;2023-04-22T00:51:31;92771.94;;;8.44;100.00
4415;BME280;2220;42.670;23.398;2023-04-22T00:53:57;92753.94;;;8.34;100.00
4415;BME280;2220;42.670;23.398;2023-04-22T00:56:26;92734.75;;;8.21;100.00
4415;BME280;2220;42.670;23.398;2023-04-22T00:58:53;92724.97;;;8.04;100.00
4415;BME280;2220;42.670;23.398;2023-04-22T01:01:20;92725.16;;;7.94;100.00
4415;BME280;2220;42.670;23.398;2023-04-22T01:03:46;92724.19;;;7.90;100.00
4415;BME280;2220;42.670;23.398;2023-04-22T01:06:12;92727.91;;;7.84;100.00
4415;BME280;2220;42.670;23.398;2023-04-22T01:08:39;92709.78;;;7.84;100.00
4415;BME280;2220;42.670;23.398;2023-04-22T01:11:05;92696.81;;;7.84;100.00
4415;BME280;2220;42.670;23.398;2023-04-22T01:13:30;92679.94;;;7.87;100.00
4415;BME280;2220;42.670;23.398;2023-04-22T01:15:57;92655.72;;;7.91;100.00
4415;BME280;2220;42.670;23.398;2023-04-22T01:18:24;92633.00;;;7.88;100.00
4415;BME280;2220;42.670;23.398;2023-04-22T01:20:49;92620.78;;;7.89;100.00
4415;BME280;2220;42.670;23.398;2023-04-22T01:23:19;92604.66;;;7.78;100.00
4415;BME280;2220;42.670;23.398;2023-04-22T01:25:46;92588.94;;;7.74;100.00
4415;BME280;2220;42.670;23.398;2023-04-22T01:28:12;92595.84;;;7.65;100.00
4415;BME280;2220;42.670;23.398;2023-04-22T01:30:38;92590.00;;;7.73;100.00
4415;BME280;2220;42.670;23.398;2023-04-22T01:33:04;92594.19;;;7.83;100.00
4415;BME280;2220;42.670;23.398;2023-04-22T01:35:30;92584.81;;;7.87;100.00
4415;BME280;2220;42.670;23.398;2023-04-22T01:38:02;92563.31;;;7.87;100.00
4415;BME280;2220;42.670;23.398;2023-04-22T01:40:29;92557.53;;;7.90;100.00
4415;BME280;2220;42.670;23.398;2023-04-22T01:42:55;92539.69;;;7.88;100.00
4415;BME280;2220;42.670;23.398;2023-04-22T01:45:21;92507.16;;;7.82;100.00
4415;BME280;2220;42.670;23.398;2023-04-22T01:47:47;92461.66;;;7.76;100.00
4415;BME280;2220;42.670;23.398;2023-04-22T01:50:12;92451.31;;;7.76;100.00
4415;BME280;2220;42.670;23.398;2023-04-22T01:52:38;92456.81;;;7.61;100.00
4415;BME280;2220;42.670;23.398;2023-04-22T01:55:04;92457.19;;;7.68;100.00
4415;BME280;2220;42.670;23.398;2023-04-22T01:57:30;92460.84;;;7.67;100.00
4415;BME280;2220;42.670;23.398;2023-04-22T01:59:55;92461.28;;;7.69;100.00
4415;BME280;2220;42.670;23.398;2023-04-22T02:02:22;92476.22;;;7.63;100.00
4415;BME280;2220;42.670;23.398;2023-04-22T02:04:48;92482.06;;;7.55;100.00
4415;BME280;2220;42.670;23.398;2023-04-22T02:07:13;92487.22;;;7.69;100.00
4415;BME280;2220;42.670;23.398;2023-04-22T02:09:39;92477.56;;;7.83;100.00
4415;BME280;2220;42.670;23.398;2023-04-22T02:12:04;92487.56;;;7.90;100.00
4415;BME280;2220;42.670;23.398;2023-04-22T02:14:30;92480.16;;;7.83;100.00
4415;BME280;2220;42.670;23.398;2023-04-22T02:16:55;92488.91;;;7.87;100.00
4415;BME280;2220;42.670;23.398;2023-04-22T02:19:20;92497.63;;;7.91;100.00
4415;BME280;2220;42.670;23.398;2023-04-22T02:21:46;92503.28;;;7.93;100.00
4415;BME280;2220;42.670;23.398;2023-04-22T02:24:11;92496.63;;;8.01;100.00
4415;BME280;2220;42.670;23.398;2023-04-22T02:26:37;92501.31;;;8.12;100.00
4415;BME280;2220;42.670;23.398;2023-04-22T02:29:02;92500.13;;;8.19;100.00
4415;BME280;2220;42.670;23.398;2023-04-22T02:31:28;92510.50;;;8.19;100.00
4415;BME280;2220;42.670;23.398;2023-04-22T02:33:53;92505.78;;;8.21;100.00
4415;BME280;2220;42.670;23.398;2023-04-22T02:36:18;92514.50;;;8.25;100.00
4415;BME280;2220;42.670;23.398;2023-04-22T02:38:44;92514.03;;;8.23;100.00
4415;BME280;2220;42.670;23.398;2023-04-22T02:41:10;92525.16;;;8.23;100.00
4415;BME280;2220;42.670;23.398;2023-04-22T02:43:35;92518.16;;;8.24;100.00
4415;BME280;2220;42.670;23.398;2023-04-22T02:46:01;92533.53;;;8.20;100.00
4415;BME280;2220;42.670;23.398;2023-04-22T02:48:26;92529.13;;;8.21;100.00
4415;BME280;2220;42.670;23.398;2023-04-22T02:50:52;92539.50;;;8.21;100.00
4415;BME280;2220;42.670;23.398;2023-04-22T02:53:17;92541.41;;;8.15;100.00
4415;BME280;2220;42.670;23.398;2023-04-22T02:55:42;92549.88;;;8.21;100.00
4415;BME280;2220;42.670;23.398;2023-04-22T02:58:08;92550.44;;;8.18;100.00
4415;BME280;2220;42.670;23.398;2023-04-22T03:00:34;92550.72;;;8.16;100.00
4415;BME280;2220;42.670;23.398;2023-04-22T03:02:59;92558.81;;;8.14;100.00
4415;BME280;2220;42.670;23.398;2023-04-22T03:05:25;92559.69;;;8.10;100.00
4415;BME280;2220;42.670;23.398;2023-04-22T03:07:50;92573.31;;;8.02;100.00
4415;BME280;2220;42.670;23.398;2023-04-22T03:10:16;92578.66;;;7.83;100.00
4415;BME280;2220;42.670;23.398;2023-04-22T03:12:41;92579.03;;;7.76;100.00
4415;BME280;2220;42.670;23.398;2023-04-22T03:15:07;92567.22;;;7.84;100.00
4415;BME280;2220;42.670;23.398;2023-04-22T03:17:33;92577.03;;;7.87;100.00
4415;BME280;2220;42.670;23.398;2023-04-22T03:19:59;92577.41;;;7.80;100.00
4415;BME280;2220;42.670;23.398;2023-04-22T03:22:24;92585.09;;;7.72;100.00
4415;BME280;2220;42.670;23.398;2023-04-22T03:24:50;92589.59;;;7.80;100.00
4415;BME280;2220;42.670;23.398;2023-04-22T03:27:16;92584.81;;;7.73;100.00
4415;BME280;2220;42.670;23.398;2023-04-22T03:29:41;92588.56;;;7.81;100.00
4415;BME280;2220;42.670;23.398;2023-04-22T03:32:06;92599.69;;;7.81;100.00
4415;BME280;2220;42.670;23.398;2023-04-22T03:34:32;92603.72;;;7.88;100.00
4415;BME280;2220;42.670;23.398;2023-04-22T03:36:57;92609.00;;;7.82;100.00
4415;BME280;2220;42.670;23.398;2023-04-22T03:39:23;92618.50;;;7.73;100.00
4415;BME280;2220;42.670;23.398;2023-04-22T03:41:48;92629.16;;;7.72;100.00
4415;BME280;2220;42.670;23.398;2023-04-22T03:44:14;92614.66;;;7.71;100.00
4415;BME280;2220;42.670;23.398;2023-04-22T03:46:39;92623.09;;;7.76;100.00
4415;BME280;2220;42.670;23.398;2023-04-22T03:49:05;92630.59;;;7.64;100.00
4415;BME280;2220;42.670;23.398;2023-04-22T03:51:30;92631.06;;;7.52;100.00
4415;BME280;2220;42.670;23.398;2023-04-22T03:53:56;92628.84;;;7.60;100.00
4415;BME280;2220;42.670;23.398;2023-04-22T03:56:21;92629.34;;;7.48;100.00
4415;BME280;2220;42.670;23.398;2023-04-22T03:58:49;92632.69;;;7.48;100.00
4415;BME280;2220;42.670;23.398;2023-04-22T04:01:14;92634.81;;;7.46;100.00
4415;BME280;2220;42.670;23.398;2023-04-22T04:03:40;92641.91;;;7.41;100.00
4415;BME280;2220;42.670;23.398;2023-04-22T04:06:06;92633.06;;;7.42;100.00
4415;BME280;2220;42.670;23.398;2023-04-22T04:08:31;92635.19;;;7.40;100.00
4415;BME280;2220;42.670;23.398;2023-04-22T04:10:56;92641.03;;;7.45;100.00
4415;BME280;2220;42.670;23.398;2023-04-22T04:13:22;92639.78;;;7.43;100.00
4415;BME280;2220;42.670;23.398;2023-04-22T04:15:47;92637.41;;;7.46;100.00
4415;BME280;2220;42.670;23.398;2023-04-22T04:18:13;92645.66;;;7.48;100.00
4415;BME280;2220;42.670;23.398;2023-04-22T04:20:39;92637.75;;;7.53;100.00
4415;BME280;2220;42.670;23.398;2023-04-22T04:23:04;92652.44;;;7.44;100.00
4415;BME280;2220;42.670;23.398;2023-04-22T04:25:30;92656.66;;;7.40;100.00
4415;BME280;2220;42.670;23.398;2023-04-22T04:28:03;92659.72;;;7.42;100.00
4415;BME280;2220;42.670;23.398;2023-04-22T04:30:29;92655.72;;;7.50;100.00
4415;BME280;2220;42.670;23.398;2023-04-22T04:32:54;92663.97;;;7.52;100.00
4415;BME280;2220;42.670;23.398;2023-04-22T04:35:21;92668.19;;;7.62;100.00
4415;BME280;2220;42.670;23.398;2023-04-22T04:37:48;92676.34;;;7.69;100.00
4415;BME280;2220;42.670;23.398;2023-04-22T04:40:15;92671.19;;;7.82;100.00
4415;BME280;2220;42.670;23.398;2023-04-22T04:42:40;92677.63;;;7.99;100.00
4415;BME280;2220;42.670;23.398;2023-04-22T04:45:07;92682.31;;;8.10;100.00
4415;BME280;2220;42.670;23.398;2023-04-22T04:47:33;92671.81;;;8.29;100.00
4415;BME280;2220;42.670;23.398;2023-04-22T04:49:59;92681.16;;;8.44;100.00
4415;BME280;2220;42.670;23.398;2023-04-22T04:52:25;92689.56;;;8.63;100.00
4415;BME280;2220;42.670;23.398;2023-04-22T04:54:51;92709.91;;;8.70;100.00
4415;BME280;2220;42.670;23.398;2023-04-22T04:57:16;92715.72;;;8.89;100.00
4415;BME280;2220;42.670;23.398;2023-04-22T04:59:42;92735.16;;;9.37;100.00
4415;BME280;2220;42.670;23.398;2023-04-22T05:02:07;92786.47;;;9.31;100.00
4415;BME280;2220;42.670;23.398;2023-04-22T05:04:32;92816.31;;;9.56;100.00
4415;BME280;2220;42.670;23.398;2023-04-22T05:06:58;92850.56;;;9.58;100.00
4415;BME280;2220;42.670;23.398;2023-04-22T05:09:23;92876.59;;;9.44;100.00
4415;BME280;2220;42.670;23.398;2023-04-22T05:11:49;92837.75;;;9.39;100.00
4415;BME280;2220;42.670;23.398;2023-04-22T05:14:14;92806.94;;;9.10;100.00
4415;BME280;2220;42.670;23.398;2023-04-22T05:16:40;92803.13;;;8.94;100.00
4415;BME280;2220;42.670;23.398;2023-04-22T05:19:05;92788.59;;;8.93;100.00
4415;BME280;2220;42.670;23.398;2023-04-22T05:21:31;92786.94;;;8.97;100.00
4415;BME280;2220;42.670;23.398;2023-04-22T05:23:56;92784.09;;;8.99;100.00
4415;BME280;2220;42.670;23.398;2023-04-22T05:26:22;92796.50;;;8.74;100.00
4415;BME280;2220;42.670;23.398;2023-04-22T05:28:47;92782.28;;;8.85;100.00
4415;BME280;2220;42.670;23.398;2023-04-22T05:31:12;92758.50;;;8.92;100.00
4415;BME280;2220;42.670;23.398;2023-04-22T05:33:38;92744.44;;;9.07;100.00
4415;BME280;2220;42.670;23.398;2023-04-22T05:36:03;92732.19;;;9.30;100.00
4415;BME280;2220;42.670;23.398;2023-04-22T05:38:29;92759.59;;;9.36;100.00
4415;BME280;2220;42.670;23.398;2023-04-22T05:40:54;92772.59;;;9.58;100.00
4415;BME280;2220;42.670;23.398;2023-04-22T05:43:20;92811.69;;;9.31;100.00
4415;BME280;2220;42.670;23.398;2023-04-22T05:45:45;92818.13;;;9.33;100.00
4415;BME280;2220;42.670;23.398;2023-04-22T05:48:11;92803.19;;;9.61;100.00
4415;BME280;2220;42.670;23.398;2023-04-22T05:50:36;92816.19;;;9.84;100.00
4415;BME280;2220;42.670;23.398;2023-04-22T05:53:02;92847.06;;;10.07;100.00
4415;BME280;2220;42.670;23.398;2023-04-22T05:55:27;92873.69;;;10.27;100.00
4415;BME280;2220;42.670;23.398;2023-04-22T05:57:52;92908.28;;;10.58;100.00
4415;BME280;2220;42.670;23.398;2023-04-22T06:00:18;92953.19;;;10.64;100.00
4415;BME280;2220;42.670;23.398;2023-04-22T06:02:43;92975.47;;;10.79;100.00
4415;BME280;2220;42.670;23.398;2023-04-22T06:05:09;93010.44;;;10.86;100.00
4415;BME280;2220;42.670;23.398;2023-04-22T06:07:34;93051.69;;;10.71;100.00
4415;BME280;2220;42.670;23.398;2023-04-22T06:10:00;93017.44;;;10.77;100.00
4415;BME280;2220;42.670;23.398;2023-04-22T06:12:25;93024.00;;;11.06;100.00
4415;BME280;2220;42.670;23.398;2023-04-22T06:14:51;93047.72;;;11.27;100.00
4415;BME280;2220;42.670;23.398;2023-04-22T06:17:16;93102.38;;;11.40;100.00
4415;BME280;2220;42.670;23.398;2023-04-22T06:19:42;93134.31;;;11.55;100.00
4415;BME280;2220;42.670;23.398;2023-04-22T06:22:07;93177.41;;;11.52;100.00
4415;BME280;2220;42.670;23.398;2023-04-22T06:24:32;93209.91;;;11.55;100.00
4415;BME280;2220;42.670;23.398;2023-04-22T06:26:58;93211.19;;;11.57;100.00
4415;BME280;2220;42.670;23.398;2023-04-22T06:29:23;93196.06;;;11.68;100.00
4415;BME280;2220;42.670;23.398;2023-04-22T06:31:49;93211.72;;;11.45;100.00
4415;BME280;2220;42.670;23.398;2023-04-22T06:34:14;93181.13;;;11.60;100.00
4415;BME280;2220;42.670;23.398;2023-04-22T06:36:43;93159.81;;;11.58;100.00
4415;BME280;2220;42.670;23.398;2023-04-22T06:39:08;93138.56;;;11.73;100.00
4415;BME280;2220;42.670;23.398;2023-04-22T06:41:35;93104.59;;;11.95;100.00
4415;BME280;2220;42.670;23.398;2023-04-22T06:44:00;93104.78;;;12.08;100.00
4415;BME280;2220;42.670;23.398;2023-04-22T06:46:26;93125.94;;;12.06;100.00
4415;BME280;2220;42.670;23.398;2023-04-22T06:48:53;93084.50;;;12.04;100.00
4415;BME280;2220;42.670;23.398;2023-04-22T06:51:19;93124.03;;;12.46;100.00
4415;BME280;2220;42.670;23.398;2023-04-22T06:53:45;93131.22;;;12.23;100.00
4415;BME280;2220;42.670;23.398;2023-04-22T06:56:10;93101.41;;;12.24;100.00
4415;BME280;2220;42.670;23.398;2023-04-22T06:58:36;93083.91;;;12.33;100.00
4415;BME280;2220;42.670;23.398;2023-04-22T07:01:01;93113.72;;;12.32;100.00
4415;BME280;2220;42.670;23.398;2023-04-22T07:03:27;93124.59;;;12.26;100.00
4415;BME280;2220;42.670;23.398;2023-04-22T07:05:52;93141.69;;;12.49;100.00
4415;BME280;2220;42.670;23.398;2023-04-22T07:08:18;93147.41;;;12.69;100.00
4415;BME280;2220;42.670;23.398;2023-04-22T07:10:43;93144.91;;;12.46;100.00
4415;BME280;2220;42.670;23.398;2023-04-22T07:13:09;93167.09;;;12.83;100.00
4415;BME280;2220;42.670;23.398;2023-04-22T07:15:34;93193.38;;;13.04;100.00
4415;BME280;2220;42.670;23.398;2023-04-22T07:18:00;93221.97;;;13.09;100.00
4415;BME280;2220;42.670;23.398;2023-04-22T07:20:25;93272.13;;;13.20;100.00
4415;BME280;2220;42.670;23.398;2023-04-22T07:22:51;93247.34;;;13.18;100.00
4415;BME280;2220;42.670;23.398;2023-04-22T07:25:17;93302.44;;;13.38;100.00
4415;BME280;2220;42.670;23.398;2023-04-22T07:27:42;93315.22;;;13.66;100.00
4415;BME280;2220;42.670;23.398;2023-04-22T07:30:11;93347.06;;;13.77;100.00
4415;BME280;2220;42.670;23.398;2023-04-22T07:32:37;93348.28;;;13.62;100.00
4415;BME280;2220;42.670;23.398;2023-04-22T07:35:03;93340.44;;;13.62;100.00
4415;BME280;2220;42.670;23.398;2023-04-22T07:37:29;93366.44;;;13.32;100.00
4415;BME280;2220;42.670;23.398;2023-04-22T07:39:54;93340.28;;;13.41;100.00
4415;BME280;2220;42.670;23.398;2023-04-22T07:42:19;93360.47;;;13.66;100.00
4415;BME280;2220;42.670;23.398;2023-04-22T07:44:45;93396.63;;;13.64;100.00
4415;BME280;2220;42.670;23.398;2023-04-22T07:47:10;93417.25;;;13.92;100.00
4415;BME280;2220;42.670;23.398;2023-04-22T07:49:36;93491.78;;;14.03;100.00
4415;BME280;2220;42.670;23.398;2023-04-22T07:52:02;93555.44;;;14.38;100.00
4415;BME280;2220;42.670;23.398;2023-04-22T07:54:27;93586.44;;;14.45;100.00
4415;BME280;2220;42.670;23.398;2023-04-22T07:56:53;93580.19;;;14.06;100.00
4415;BME280;2220;42.670;23.398;2023-04-22T07:59:18;93577.50;;;14.37;100.00
4415;BME280;2220;42.670;23.398;2023-04-22T08:01:44;93639.63;;;14.45;100.00
4415;BME280;2220;42.670;23.398;2023-04-22T08:04:11;93706.91;;;14.36;100.00
4415;BME280;2220;42.670;23.398;2023-04-22T08:06:36;93605.16;;;14.04;100.00
4415;BME280;2220;42.670;23.398;2023-04-22T08:09:02;93580.28;;;14.58;100.00
4415;BME280;2220;42.670;23.398;2023-04-22T08:11:27;93623.16;;;14.97;100.00
4415;BME280;2220;42.670;23.398;2023-04-22T08:13:53;93753.97;;;15.24;100.00
4415;BME280;2220;42.670;23.398;2023-04-22T08:16:19;93802.28;;;15.41;100.00
4415;BME280;2220;42.670;23.398;2023-04-22T08:18:45;93837.47;;;15.39;100.00
4415;BME280;2220;42.670;23.398;2023-04-22T08:21:10;93837.31;;;15.36;100.00
4415;BME280;2220;42.670;23.398;2023-04-22T08:23:36;93877.69;;;15.75;100.00
4415;BME280;2220;42.670;23.398;2023-04-22T08:26:02;93936.84;;;15.98;100.00
4415;BME280;2220;42.670;23.398;2023-04-22T08:28:28;93986.31;;;16.05;100.00
4415;BME280;2220;42.670;23.398;2023-04-22T08:30:53;94033.88;;;16.03;100.00
4415;BME280;2220;42.670;23.398;2023-04-22T08:33:19;94048.69;;;15.90;100.00
4415;BME280;2220;42.670;23.398;2023-04-22T08:35:46;94082.75;;;16.13;100.00
4415;BME280;2220;42.670;23.398;2023-04-22T08:38:12;94109.63;;;16.18;100.00
4415;BME280;2220;42.670;23.398;2023-04-22T08:40:40;94083.84;;;16.29;100.00
4415;BME280;2220;42.670;23.398;2023-04-22T08:43:06;94065.09;;;16.05;100.00
4415;BME280;2220;42.670;23.398;2023-04-22T08:45:32;94065.91;;;16.14;100.00
4415;BME280;2220;42.670;23.398;2023-04-22T08:47:58;94059.97;;;16.00;100.00
4415;BME280;2220;42.670;23.398;2023-04-22T08:50:25;94049.22;;;16.27;100.00
4415;BME280;2220;42.670;23.398;2023-04-22T08:52:51;94053.41;;;16.54;100.00
4415;BME280;2220;42.670;23.398;2023-04-22T08:55:16;94063.63;;;16.56;100.00
4415;BME280;2220;42.670;23.398;2023-04-22T08:57:43;94080.47;;;16.63;100.00
4415;BME280;2220;42.670;23.398;2023-04-22T09:00:09;94102.13;;;16.60;100.00
4415;BME280;2220;42.670;23.398;2023-04-22T09:02:36;94118.34;;;16.45;100.00
4415;BME280;2220;42.670;23.398;2023-04-22T09:05:02;94118.34;;;16.45;100.00
4415;BME280;2220;42.670;23.398;2023-04-22T09:07:30;94120.97;;;16.45;100.00
4415;BME280;2220;42.670;23.398;2023-04-22T09:09:57;94133.97;;;16.50;100.00
4415;BME280;2220;42.670;23.398;2023-04-22T09:12:24;94149.44;;;16.60;100.00
4415;BME280;2220;42.670;23.398;2023-04-22T09:14:50;94145.25;;;16.59;100.00
4415;BME280;2220;42.670;23.398;2023-04-22T09:17:17;94195.69;;;16.61;100.00
4415;BME280;2220;42.670;23.398;2023-04-22T09:19:44;94202.69;;;16.74;100.00
4415;BME280;2220;42.670;23.398;2023-04-22T09:22:11;94213.09;;;16.88;100.00
4415;BME280;2220;42.670;23.398;2023-04-22T09:24:48;94232.41;;;16.84;100.00
4415;BME280;2220;42.670;23.398;2023-04-22T09:27:16;94264.84;;;17.45;100.00
4415;BME280;2220;42.670;23.398;2023-04-22T09:29:47;94302.91;;;17.30;100.00
4415;BME280;2220;42.670;23.398;2023-04-22T09:32:14;94345.16;;;17.16;100.00
4415;BME280;2220;42.670;23.398;2023-04-22T09:34:52;94379.41;;;16.85;100.00
4415;BME280;2220;42.670;23.398;2023-04-22T09:37:20;94408.75;;;16.70;100.00
4415;BME280;2220;42.670;23.398;2023-04-22T09:39:48;94404.28;;;16.79;100.00
4415;BME280;2220;42.670;23.398;2023-04-22T09:42:17;94410.97;;;16.63;100.00
4415;BME280;2220;42.670;23.398;2023-04-22T09:44:50;94436.31;;;16.81;100.00
4415;BME280;2220;42.670;23.398;2023-04-22T09:47:19;94444.78;;;17.00;100.00
4415;BME280;2220;42.670;23.398;2023-04-22T09:49:49;94461.38;;;16.78;100.00
4415;BME280;2220;42.670;23.398;2023-04-22T09:52:24;94461.13;;;16.89;100.00
4415;BME280;2220;42.670;23.398;2023-04-22T09:54:52;94453.28;;;16.75;100.00
4415;BME280;2220;42.670;23.398;2023-04-22T09:57:18;94442.97;;;16.78;100.00
4415;BME280;2220;42.670;23.398;2023-04-22T09:59:44;94441.06;;;15.07;100.00
4415;BME280;2220;42.670;23.398;2023-04-22T10:02:10;94374.88;;;14.22;100.00
4415;BME280;2220;42.670;23.398;2023-04-22T10:04:36;94424.38;;;14.05;100.00
4415;BME280;2220;42.670;23.398;2023-04-22T10:07:02;94429.66;;;14.00;100.00
4415;BME280;2220;42.670;23.398;2023-04-22T10:09:27;94457.13;;;14.03;100.00
4415;BME280;2220;42.670;23.398;2023-04-22T10:11:55;94480.47;;;13.99;100.00
4415;BME280;2220;42.670;23.398;2023-04-22T10:14:23;94478.44;;;13.96;100.00
4415;BME280;2220;42.670;23.398;2023-04-22T10:16:51;94482.09;;;13.95;100.00
4415;BME280;2220;42.670;23.398;2023-04-22T10:19:22;94487.50;;;14.22;100.00
4415;BME280;2220;42.670;23.398;2023-04-22T10:21:51;94484.53;;;14.48;100.00
4415;BME280;2220;42.670;23.398;2023-04-22T10:24:18;94541.50;;;14.94;96.70
4415;BME280;2220;42.670;23.398;2023-04-22T10:26:48;94505.09;;;15.20;99.67
4415;BME280;2220;42.670;23.398;2023-04-22T10:29:16;94502.16;;;14.94;100.00
4415;BME280;2220;42.670;23.398;2023-04-22T10:31:44;94467.94;;;14.85;100.00
4415;BME280;2220;42.670;23.398;2023-04-22T10:34:14;94417.00;;;14.59;100.00
4415;BME280;2220;42.670;23.398;2023-04-22T10:39:30;94450.44;;;14.80;100.00
4415;BME280;2220;42.670;23.398;2023-04-22T10:41:57;94463.31;;;15.23;100.00
4415;BME280;2220;42.670;23.398;2023-04-22T10:44:50;94554.63;;;15.54;89.81
4415;BME280;2220;42.670;23.398;2023-04-22T10:47:28;94568.88;;;15.80;84.92
4415;BME280;2220;42.670;23.398;2023-04-22T10:52:40;94574.47;;;16.29;83.02
4415;BME280;2220;42.670;23.398;2023-04-22T10:55:06;94575.81;;;16.40;85.85
4415;BME280;2220;42.670;23.398;2023-04-22T10:57:43;94575.81;;;16.40;80.61
4415;BME280;2220;42.670;23.398;2023-04-22T11:03:07;94591.97;;;16.47;79.36
4415;BME280;2220;42.670;23.398;2023-04-22T11:05:35;94600.78;;;16.65;73.37
4415;BME280;2220;42.670;23.398;2023-04-22T11:08:06;94585.88;;;16.60;74.38
4415;BME280;2220;42.670;23.398;2023-04-22T11:10:34;94580.03;;;16.00;87.43
4415;BME280;2220;42.670;23.398;2023-04-22T11:13:05;94547.59;;;15.35;94.48
4415;BME280;2220;42.670;23.398;2023-04-22T11:15:33;94524.53;;;15.19;97.76
4415;BME280;2220;42.670;23.398;2023-04-22T11:17:59;94512.50;;;15.18;100.00
4415;BME280;2220;42.670;23.398;2023-04-22T11:20:25;94517.53;;;15.14;100.00
4415;BME280;2220;42.670;23.398;2023-04-22T11:22:52;94520.38;;;15.31;100.00
4415;BME280;2220;42.670;23.398;2023-04-22T11:25:19;94500.56;;;15.53;100.00
4415;BME280;2220;42.670;23.398;2023-04-22T11:27:44;94545.22;;;15.66;96.17
4415;BME280;2220;42.670;23.398;2023-04-22T11:30:15;94542.59;;;15.94;100.00
4415;BME280;2220;42.670;23.398;2023-04-22T11:35:22;94519.38;;;15.74;100.00
4415;BME280;2220;42.670;23.398;2023-04-22T11:37:48;94527.22;;;15.60;100.00
4415;BME280;2220;42.670;23.398;2023-04-22T11:40:19;94542.69;;;15.15;100.00
4415;BME280;2220;42.670;23.398;2023-04-22T11:42:46;94510.94;;;15.30;100.00
4415;BME280;2220;42.670;23.398;2023-04-22T11:45:12;94527.03;;;15.56;100.00
4415;BME280;2220;42.670;23.398;2023-04-22T11:47:39;94558.72;;;15.60;100.00
4415;BME280;2220;42.670;23.398;2023-04-22T11:50:07;94529.94;;;15.41;100.00
4415;BME280;2220;42.670;23.398;2023-04-22T11:52:54;94577.78;;;15.79;98.07
4415;BME280;2220;42.670;23.398;2023-04-22T11:55:25;94535.38;;;16.00;100.00
4415;BME280;2220;42.670;23.398;2023-04-22T11:58:05;94561.69;;;15.72;100.00
4415;BME280;2220;42.670;23.398;2023-04-22T12:00:36;94536.16;;;15.86;100.00
4415;BME280;2220;42.670;23.398;2023-04-22T12:05:42;94564.47;;;15.62;100.00
4415;BME280;2220;42.670;23.398;2023-04-22T12:08:16;94547.72;;;15.58;100.00
4415;BME280;2220;42.670;23.398;2023-04-22T12:10:44;94531.09;;;15.49;100.00
4415;BME280;2220;42.670;23.398;2023-04-22T12:13:19;94506.59;;;15.26;100.00
4415;BME280;2220;42.670;23.398;2023-04-22T12:15:45;94503.28;;;15.48;100.00
4415;BME280;2220;42.670;23.398;2023-04-22T12:18:11;94493.38;;;15.45;100.00
4415;BME280;2220;42.670;23.398;2023-04-22T12:20:41;94547.13;;;15.47;100.00
4415;BME280;2220;42.670;23.398;2023-04-22T12:23:15;94559.13;;;15.67;99.77
4415;BME280;2220;42.670;23.398;2023-04-22T12:25:41;94534.53;;;15.77;100.00
4415;BME280;2220;42.670;23.398;2023-04-22T12:28:07;94577.41;;;15.86;100.00
4415;BME280;2220;42.670;23.398;2023-04-22T12:30:33;94535.09;;;15.60;100.00
4415;BME280;2220;42.670;23.398;2023-04-22T12:32:58;94482.19;;;15.25;100.00
4415;BME280;2220;42.670;23.398;2023-04-22T12:35:23;94483.34;;;15.19;100.00
4415;BME280;2220;42.670;23.398;2023-04-22T12:37:49;94455.03;;;14.89;100.00
4415;BME280;2220;42.670;23.398;2023-04-22T12:40:15;94471.91;;;14.82;100.00
4415;BME280;2220;42.670;23.398;2023-04-22T12:42:40;94491.75;;;14.56;100.00
4415;BME280;2220;42.670;23.398;2023-04-22T12:45:06;94426.41;;;14.60;100.00
4415;BME280;2220;42.670;23.398;2023-04-22T12:47:33;94402.66;;;14.83;100.00
4415;BME280;2220;42.670;23.398;2023-04-22T12:49:58;94379.88;;;15.11;100.00
4415;BME280;2220;42.670;23.398;2023-04-22T12:52:25;94370.50;;;15.47;100.00
4415;BME280;2220;42.670;23.398;2023-04-22T12:54:51;94404.66;;;15.33;100.00
4415;BME280;2220;42.670;23.398;2023-04-22T12:57:16;94376.34;;;15.57;100.00
4415;BME280;2220;42.670;23.398;2023-04-22T12:59:41;94382.50;;;15.89;100.00
4415;BME280;2220;42.670;23.398;2023-04-22T13:02:08;94383.47;;;15.79;100.00
4415;BME280;2220;42.670;23.398;2023-04-22T13:04:34;94405.78;;;15.82;100.00
4415;BME280;2220;42.670;23.398;2023-04-22T13:07:00;94427.25;;;15.84;100.00
4415;BME280;2220;42.670;23.398;2023-04-22T13:09:25;94434.06;;;15.85;100.00
4415;BME280;2220;42.670;23.398;2023-04-22T13:11:51;94441.31;;;16.02;100.00
4415;BME280;2220;42.670;23.398;2023-04-22T13:14:17;94448.53;;;16.18;100.00